createdAt,value
2018-10-17T00:02:22.457Z,8.90
2018-10-17T00:04:51.104Z,8.88
2018-10-17T00:07:19.682Z,8.84
2018-10-17T00:09:48.169Z,8.85
2018-10-17T00:12:16.707Z,8.88
2018-10-17T00:14:45.302Z,8.83
2018-10-17T00:17:14.373Z,8.74
2018-10-17T00:19:42.864Z,8.72
2018-10-17T00:22:12.295Z,8.72
2018-10-17T00:24:40.881Z,8.73
2018-10-17T00:27:10.470Z,8.74
2018-10-17T00:29:38.964Z,8.71
2018-10-17T00:32:07.634Z,8.66
2018-10-17T00:34:36.185Z,8.48
2018-10-17T00:37:04.802Z,8.43
2018-10-17T00:39:33.283Z,8.44
2018-10-17T00:42:02.584Z,8.36
2018-10-17T00:44:32.786Z,8.34
2018-10-17T00:47:01.400Z,8.37
2018-10-17T00:49:29.949Z,8.41
2018-10-17T00:51:58.462Z,8.45
2018-10-17T00:54:26.995Z,8.47
2018-10-17T00:56:55.584Z,8.47
2018-10-17T00:59:24.177Z,8.35
2018-10-17T01:01:52.771Z,8.27
2018-10-17T01:04:21.789Z,8.24
2018-10-17T01:06:50.306Z,8.32
2018-10-17T01:09:19.025Z,8.39
2018-10-17T01:11:47.612Z,8.44
2018-10-17T01:14:16.161Z,8.36
2018-10-17T01:16:44.648Z,8.28
2018-10-17T01:19:13.314Z,8.36
2018-10-17T01:21:41.843Z,8.31
2018-10-17T01:24:10.398Z,8.23
2018-10-17T01:26:38.909Z,8.11
2018-10-17T01:29:07.547Z,8.10
2018-10-17T01:31:36.077Z,8.07
2018-10-17T01:34:05.631Z,7.98
2018-10-17T01:36:34.149Z,8.07
2018-10-17T01:39:02.868Z,8.15
2018-10-17T01:41:31.444Z,8.16
2018-10-17T01:43:59.964Z,8.17
2018-10-17T01:46:28.592Z,8.13
2018-10-17T01:48:57.292Z,8.14
2018-10-17T01:51:25.798Z,8.06
2018-10-17T01:53:55.153Z,8.03
2018-10-17T01:56:23.849Z,8.01
2018-10-17T01:58:52.395Z,8.00
2018-10-17T02:01:21.941Z,8.00
2018-10-17T02:03:50.505Z,8.02
2018-10-17T02:06:20.072Z,8.03
2018-10-17T02:08:48.685Z,7.88
2018-10-17T02:11:17.315Z,7.79
2018-10-17T02:13:47.616Z,7.76
2018-10-17T02:16:16.091Z,7.78
2018-10-17T02:18:44.614Z,7.77
2018-10-17T02:21:13.298Z,7.77
2018-10-17T02:23:41.906Z,7.73
2018-10-17T02:26:10.468Z,7.68
2018-10-17T02:28:39.685Z,7.62
2018-10-17T02:31:08.313Z,7.63
2018-10-17T02:33:36.854Z,7.65
2018-10-17T02:36:05.453Z,7.64
2018-10-17T02:38:33.993Z,7.68
2018-10-17T02:41:02.915Z,7.64
2018-10-17T02:43:32.053Z,7.63
2018-10-17T02:46:00.581Z,7.57
2018-10-17T02:48:29.290Z,7.48
2018-10-17T02:50:57.981Z,7.46
2018-10-17T02:53:26.538Z,7.49
2018-10-17T02:55:55.170Z,7.39
2018-10-17T02:58:23.871Z,7.45
2018-10-17T03:00:52.571Z,7.47
2018-10-17T03:03:21.236Z,7.48
2018-10-17T03:05:49.773Z,7.41
2018-10-17T03:08:19.340Z,7.39
2018-10-17T03:10:48.271Z,7.39
2018-10-17T03:13:16.826Z,7.39
2018-10-17T03:15:45.557Z,7.41
2018-10-17T03:18:14.099Z,7.29
2018-10-17T03:20:42.696Z,7.32
2018-10-17T03:23:11.365Z,7.26
2018-10-17T03:25:39.901Z,7.28
2018-10-17T03:28:08.594Z,7.35
2018-10-17T03:30:37.062Z,7.40
2018-10-17T03:33:05.734Z,7.34
2018-10-17T03:35:34.318Z,7.30
2018-10-17T03:38:02.930Z,7.28
2018-10-17T03:40:31.514Z,7.35
2018-10-17T03:43:00.294Z,7.43
2018-10-17T03:45:29.116Z,7.35
2018-10-17T03:47:57.635Z,7.42
2018-10-17T03:50:26.150Z,7.51
2018-10-17T03:52:55.199Z,7.53
2018-10-17T03:55:23.854Z,7.57
2018-10-17T03:57:52.382Z,7.74
2018-10-17T04:00:20.938Z,7.90
2018-10-17T04:02:49.660Z,7.94
2018-10-17T04:05:18.346Z,8.07
2018-10-17T04:07:46.782Z,8.15
2018-10-17T04:10:15.291Z,8.10
2018-10-17T04:12:44.009Z,8.08
2018-10-17T04:15:12.529Z,8.14
2018-10-17T04:17:41.306Z,8.16
2018-10-17T04:20:09.789Z,8.23
2018-10-17T04:22:43.004Z,8.32
2018-10-17T04:25:11.470Z,8.43
2018-10-17T04:27:39.978Z,8.46
2018-10-17T04:30:08.681Z,8.39
2018-10-17T04:32:37.461Z,8.35
2018-10-17T04:35:06.380Z,8.33
2018-10-17T04:37:35.926Z,8.38
2018-10-17T04:40:04.754Z,8.39
2018-10-17T04:42:33.374Z,8.56
2018-10-17T04:45:02.574Z,8.73
2018-10-17T04:47:31.266Z,8.87
2018-10-17T04:50:00.154Z,8.80
2018-10-17T04:52:28.807Z,8.74
2018-10-17T04:54:57.392Z,8.69
2018-10-17T04:57:26.100Z,8.74
2018-10-17T04:59:54.711Z,8.83
2018-10-17T05:02:23.305Z,8.94
2018-10-17T05:04:51.804Z,8.99
2018-10-17T05:07:20.406Z,8.98
2018-10-17T05:09:48.916Z,8.89
2018-10-17T05:12:18.256Z,8.88
2018-10-17T05:14:47.419Z,9.00
2018-10-17T05:17:16.062Z,9.01
2018-10-17T05:19:44.725Z,9.05
2018-10-17T05:22:13.331Z,9.00
2018-10-17T05:24:41.973Z,9.11
2018-10-17T05:27:10.489Z,9.00
2018-10-17T05:29:39.336Z,8.96
2018-10-17T05:32:07.943Z,8.87
2018-10-17T05:34:37.172Z,8.82
2018-10-17T05:37:06.213Z,8.78
2018-10-17T05:39:34.909Z,8.77
2018-10-17T05:42:04.867Z,8.82
2018-10-17T05:44:33.409Z,8.88
2018-10-17T05:47:02.173Z,8.90
2018-10-17T05:49:31.467Z,8.86
2018-10-17T05:52:00.074Z,8.90
2018-10-17T05:54:29.536Z,8.82
2018-10-17T05:56:58.131Z,8.90
2018-10-17T05:59:26.717Z,9.06
2018-10-17T06:01:55.775Z,9.23
2018-10-17T06:04:24.285Z,9.28
2018-10-17T06:06:53.678Z,9.36
2018-10-17T06:09:23.321Z,9.41
2018-10-17T06:11:51.916Z,9.38
2018-10-17T06:14:20.452Z,9.36
2018-10-17T06:16:49.066Z,9.35
2018-10-17T06:19:17.702Z,9.32
2018-10-17T06:21:46.370Z,9.23
2018-10-17T06:24:15.005Z,9.29
2018-10-17T06:26:44.886Z,9.31
2018-10-17T06:29:13.556Z,9.32
2018-10-17T06:31:42.114Z,9.31
2018-10-17T06:34:10.899Z,9.30
2018-10-17T06:36:39.521Z,9.33
2018-10-17T06:39:11.343Z,9.42
2018-10-17T06:41:39.950Z,9.46
2018-10-17T06:44:08.797Z,9.65
2018-10-17T06:46:37.613Z,9.74
2018-10-17T06:49:06.989Z,9.88
2018-10-17T06:51:35.475Z,9.94
2018-10-17T06:54:04.287Z,10.02
2018-10-17T06:56:32.825Z,10.17
2018-10-17T06:59:01.557Z,10.21
2018-10-17T07:01:30.360Z,10.25
2018-10-17T07:03:58.914Z,10.35
2018-10-17T07:06:27.551Z,10.43
2018-10-17T07:08:56.202Z,10.54
2018-10-17T07:11:24.820Z,10.66
2018-10-17T07:13:53.441Z,10.81
2018-10-17T07:16:22.111Z,10.96
2018-10-17T07:18:50.735Z,11.07
2018-10-17T07:21:19.293Z,11.20
2018-10-17T07:23:47.887Z,11.35
2018-10-17T07:26:16.403Z,11.52
2018-10-17T07:28:45.086Z,11.65
2018-10-17T07:31:13.773Z,11.78
2018-10-17T07:33:42.401Z,11.96
2018-10-17T07:36:11.216Z,12.07
2018-10-17T07:38:39.823Z,12.22
2018-10-17T07:41:09.261Z,12.41
2018-10-17T07:43:37.831Z,12.55
2018-10-17T07:46:07.517Z,12.72
2018-10-17T07:48:37.366Z,12.90
2018-10-17T07:51:06.150Z,13.09
2018-10-17T07:53:35.453Z,13.26
2018-10-17T07:56:04.152Z,13.40
2018-10-17T07:58:33.167Z,13.58
2018-10-17T08:01:01.750Z,13.77
2018-10-17T08:03:32.365Z,13.91
2018-10-17T08:06:00.999Z,14.02
2018-10-17T08:08:29.470Z,14.15
2018-10-17T08:10:58.038Z,14.33
2018-10-17T08:13:26.680Z,14.46
2018-10-17T08:15:55.148Z,14.57
2018-10-17T08:18:23.720Z,14.68
2018-10-17T08:20:52.655Z,14.79
2018-10-17T08:23:21.225Z,14.93
2018-10-17T08:25:49.943Z,15.03
2018-10-17T08:28:18.956Z,15.16
2018-10-17T08:30:47.529Z,15.28
2018-10-17T08:33:18.761Z,15.41
2018-10-17T08:35:47.403Z,15.56
2018-10-17T08:38:16.050Z,15.73
2018-10-17T08:40:44.670Z,15.95
2018-10-17T08:43:13.299Z,16.17
2018-10-17T08:45:42.449Z,16.50
2018-10-17T08:48:11.137Z,16.75
2018-10-17T08:50:40.902Z,16.93
2018-10-17T08:53:09.477Z,17.11
2018-10-17T08:55:38.598Z,17.27
2018-10-17T08:58:07.217Z,17.33
2018-10-17T09:00:35.827Z,17.31
2018-10-17T09:03:04.652Z,17.36
2018-10-17T09:05:33.333Z,17.50
2018-10-17T09:08:03.122Z,17.60
2018-10-17T09:10:31.698Z,17.72
2018-10-17T09:13:00.905Z,17.81
2018-10-17T09:15:29.555Z,17.92
2018-10-17T09:17:58.112Z,17.93
2018-10-17T09:20:27.103Z,17.98
2018-10-17T09:22:55.447Z,18.10
2018-10-17T09:25:23.935Z,18.14
2018-10-17T09:27:53.136Z,18.17
2018-10-17T09:30:22.721Z,18.31
2018-10-17T09:32:51.354Z,18.37
2018-10-17T09:35:20.060Z,18.44
2018-10-17T09:37:49.205Z,18.49
2018-10-17T09:40:17.834Z,18.54
2018-10-17T09:42:46.466Z,18.57
2018-10-17T09:45:15.027Z,18.60
2018-10-17T09:47:43.646Z,18.70
2018-10-17T09:50:12.309Z,18.78
2018-10-17T09:52:41.081Z,18.86
2018-10-17T09:55:10.045Z,18.87
2018-10-17T09:57:38.727Z,18.86
2018-10-17T10:01:15.360Z,18.91
2018-10-17T10:03:44.322Z,19.02
2018-10-17T10:06:12.922Z,19.10
2018-10-17T10:08:41.623Z,19.14
2018-10-17T10:11:10.217Z,19.19
2018-10-17T10:13:38.897Z,19.34
2018-10-17T10:16:07.571Z,19.47
2018-10-17T10:18:36.027Z,19.65
2018-10-17T10:21:04.716Z,19.77
2018-10-17T10:23:33.380Z,20.01
2018-10-17T10:26:01.923Z,20.13
2018-10-17T10:28:30.503Z,20.18
2018-10-17T10:30:59.153Z,20.24
2018-10-17T10:33:27.744Z,20.32
2018-10-17T10:35:56.771Z,20.39
2018-10-17T10:38:25.359Z,20.60
2018-10-17T10:40:54.047Z,20.78
2018-10-17T10:43:23.726Z,21.05
2018-10-17T10:45:52.321Z,21.18
2018-10-17T10:48:21.057Z,21.02
2018-10-17T10:50:49.830Z,21.07
2018-10-17T10:53:18.318Z,21.12
2018-10-17T10:55:48.141Z,21.18
2018-10-17T10:58:16.778Z,21.24
2018-10-17T11:00:45.393Z,21.32
2018-10-17T11:03:14.104Z,21.45
2018-10-17T11:05:42.879Z,21.60
2018-10-17T11:08:11.584Z,21.54
2018-10-17T11:10:40.134Z,21.30
2018-10-17T11:13:09.028Z,21.21
2018-10-17T11:15:38.227Z,21.53
2018-10-17T11:20:45.379Z,22.44
2018-10-17T11:23:14.614Z,22.99
2018-10-17T11:25:43.218Z,23.45
2018-10-17T11:28:11.903Z,23.82
2018-10-17T11:30:40.671Z,24.18
2018-10-17T11:33:09.322Z,24.59
2018-10-17T11:35:38.027Z,24.75
2018-10-17T11:38:06.658Z,25.06
2018-10-17T11:40:35.240Z,25.34
2018-10-17T11:43:03.872Z,25.60
2018-10-17T11:45:33.530Z,26.07
2018-10-17T11:48:02.418Z,26.46
2018-10-17T11:50:31.008Z,26.67
2018-10-17T11:52:59.682Z,26.91
2018-10-17T11:55:28.153Z,27.26
2018-10-17T11:57:56.846Z,27.54
2018-10-17T12:00:25.491Z,27.93
2018-10-17T12:02:54.309Z,28.21
2018-10-17T12:05:23.122Z,28.65
2018-10-17T12:07:51.453Z,28.68
2018-10-17T12:10:20.148Z,28.81
2018-10-17T12:12:48.696Z,28.77
2018-10-17T12:15:17.325Z,28.78
2018-10-17T12:17:45.918Z,28.80
2018-10-17T12:20:15.701Z,28.95
2018-10-17T12:22:45.209Z,29.16
2018-10-17T12:25:14.286Z,29.36
2018-10-17T12:27:42.909Z,29.63
2018-10-17T12:30:13.668Z,29.57
2018-10-17T12:32:42.434Z,29.47
2018-10-17T12:35:11.925Z,29.60
2018-10-17T12:37:40.615Z,29.72
2018-10-17T12:40:10.657Z,30.08
2018-10-17T12:42:39.207Z,30.14
2018-10-17T12:45:07.807Z,30.44
2018-10-17T12:47:36.374Z,30.65
2018-10-17T12:50:05.441Z,30.87
2018-10-17T12:52:33.896Z,30.80
2018-10-17T12:55:02.402Z,30.64
2018-10-17T12:57:30.827Z,30.79
2018-10-17T12:59:59.831Z,31.13
2018-10-17T13:02:29.388Z,31.23
2018-10-17T13:04:58.021Z,31.16
2018-10-17T13:07:28.679Z,30.77
2018-10-17T13:09:57.246Z,30.65
2018-10-17T13:12:25.866Z,30.71
2018-10-17T13:14:54.768Z,30.78
2018-10-17T13:17:23.788Z,30.82
2018-10-17T13:19:52.394Z,31.08
2018-10-17T13:22:21.256Z,31.17
2018-10-17T13:24:50.009Z,31.04
2018-10-17T13:27:18.892Z,30.98
2018-10-17T13:29:47.590Z,30.80
2018-10-17T13:32:17.203Z,30.91
2018-10-17T13:34:45.895Z,30.87
2018-10-17T13:37:14.793Z,30.38
2018-10-17T13:39:43.342Z,30.46
2018-10-17T13:42:12.354Z,30.60
2018-10-17T13:44:40.927Z,30.44
2018-10-17T13:47:09.721Z,30.37
2018-10-17T13:49:38.665Z,30.01
2018-10-17T13:52:07.301Z,29.68
2018-10-17T13:54:35.981Z,29.64
2018-10-17T13:57:04.867Z,29.63
2018-10-17T13:59:33.637Z,29.53
2018-10-17T14:02:02.401Z,29.36
2018-10-17T14:04:31.530Z,28.90
2018-10-17T14:07:00.125Z,28.80
2018-10-17T14:09:28.676Z,28.70
2018-10-17T14:11:57.474Z,28.68
2018-10-17T14:14:26.062Z,28.63
2018-10-17T14:16:54.986Z,28.46
2018-10-17T14:19:24.051Z,27.81
2018-10-17T14:21:52.711Z,27.47
2018-10-17T14:24:21.554Z,27.52
2018-10-17T14:26:50.156Z,27.41
2018-10-17T14:29:18.686Z,27.19
2018-10-17T14:31:47.246Z,27.17
2018-10-17T14:34:15.985Z,26.81
2018-10-17T14:36:44.574Z,26.40
2018-10-17T14:39:13.757Z,25.95
2018-10-17T14:41:42.454Z,25.68
2018-10-17T14:44:10.967Z,25.57
2018-10-17T14:46:41.381Z,25.50
2018-10-17T14:49:10.001Z,25.28
2018-10-17T14:51:38.584Z,25.00
2018-10-17T14:54:07.273Z,24.73
2018-10-17T14:56:35.821Z,24.61
2018-10-17T14:59:04.578Z,24.41
2018-10-17T15:01:33.139Z,23.83
2018-10-17T15:04:01.695Z,23.30
2018-10-17T15:06:30.275Z,23.00
2018-10-17T15:08:59.156Z,22.83
2018-10-17T15:11:27.808Z,22.55
2018-10-17T15:13:57.532Z,22.31
2018-10-17T15:16:26.135Z,21.94
2018-10-17T15:18:54.844Z,21.62
2018-10-17T15:21:23.471Z,21.35
2018-10-17T15:23:52.221Z,21.10
2018-10-17T15:26:20.863Z,20.80
2018-10-17T15:28:49.395Z,20.61
2018-10-17T15:31:17.988Z,20.37
2018-10-17T15:33:46.558Z,20.13
2018-10-17T15:36:16.278Z,19.90
2018-10-17T15:38:45.085Z,19.69
2018-10-17T15:41:13.805Z,19.47
2018-10-17T15:43:42.678Z,19.24
2018-10-17T15:46:13.416Z,19.03
2018-10-17T15:48:42.069Z,18.86
2018-10-17T15:51:10.736Z,18.70
2018-10-17T15:53:40.350Z,18.57
2018-10-17T15:56:08.938Z,18.40
2018-10-17T15:58:37.610Z,18.22
2018-10-17T16:01:06.309Z,18.03
2018-10-17T16:03:35.009Z,17.84
2018-10-17T16:06:03.662Z,17.70
2018-10-17T16:08:32.637Z,17.57
2018-10-17T16:11:01.129Z,17.46
2018-10-17T16:13:29.747Z,17.36
2018-10-17T16:15:59.271Z,17.24
2018-10-17T16:18:27.949Z,17.16
2018-10-17T16:20:57.014Z,17.09
2018-10-17T16:23:25.538Z,17.04
2018-10-17T16:25:54.137Z,16.99
2018-10-17T16:28:22.720Z,16.94
2018-10-17T16:30:51.303Z,16.86
2018-10-17T16:33:20.269Z,16.79
2018-10-17T16:35:48.851Z,16.71
2018-10-17T16:38:17.606Z,16.62
2018-10-17T16:40:46.163Z,16.49
2018-10-17T16:43:14.826Z,16.43
2018-10-17T16:45:43.486Z,16.35
2018-10-17T16:48:11.980Z,16.25
2018-10-17T16:50:40.604Z,16.17
2018-10-17T16:53:09.100Z,16.09
2018-10-17T16:55:37.670Z,16.02
2018-10-17T16:58:06.331Z,15.97
2018-10-17T17:00:34.971Z,15.93
2018-10-17T17:03:04.908Z,15.90
2018-10-17T17:05:33.432Z,15.86
2018-10-17T17:08:01.918Z,15.82
2018-10-17T17:10:30.633Z,15.75
2018-10-17T17:12:59.249Z,15.56
2018-10-17T17:15:27.772Z,15.36
2018-10-17T17:17:56.433Z,15.11
2018-10-17T17:20:25.990Z,14.92
2018-10-17T17:22:56.125Z,14.71
2018-10-17T17:25:24.847Z,14.54
2018-10-17T17:27:53.533Z,14.33
2018-10-17T17:30:22.166Z,14.15
2018-10-17T17:32:50.722Z,14.05
2018-10-17T17:37:49.176Z,13.91
2018-10-17T17:40:17.746Z,13.87
2018-10-17T17:42:47.662Z,13.78
2018-10-17T17:45:16.246Z,13.68
2018-10-17T17:47:44.822Z,13.55
2018-10-17T17:50:13.661Z,13.40
2018-10-17T17:52:43.421Z,13.27
2018-10-17T17:55:11.987Z,13.25
2018-10-17T17:57:40.896Z,13.20
2018-10-17T18:00:09.563Z,13.12
2018-10-17T18:02:38.058Z,13.10
2018-10-17T18:05:07.711Z,13.03
2018-10-17T18:07:36.465Z,12.89
2018-10-17T18:10:05.640Z,12.80
2018-10-17T18:12:34.394Z,12.75
2018-10-17T18:15:03.097Z,12.68
2018-10-17T18:17:32.167Z,12.68
2018-10-17T18:20:00.821Z,12.62
2018-10-17T18:22:29.636Z,12.56
2018-10-17T18:24:58.130Z,12.55
2018-10-17T18:27:27.091Z,12.56
2018-10-17T18:29:55.729Z,12.48
2018-10-17T18:32:24.774Z,12.37
2018-10-17T18:34:54.473Z,12.36
2018-10-17T18:37:23.028Z,12.33
2018-10-17T18:39:51.670Z,12.29
2018-10-17T18:42:20.341Z,12.35
2018-10-17T18:44:49.191Z,12.25
2018-10-17T18:47:17.845Z,12.22
2018-10-17T18:49:46.854Z,12.23
2018-10-17T18:52:15.570Z,12.23
2018-10-17T18:54:44.258Z,12.20
2018-10-17T18:57:13.288Z,12.19
2018-10-17T18:59:41.992Z,12.21
2018-10-17T19:02:10.536Z,12.21
2018-10-17T19:04:39.213Z,12.16
2018-10-17T19:07:08.304Z,12.14
2018-10-17T19:09:36.964Z,12.16
2018-10-17T19:12:06.074Z,12.22
2018-10-17T19:14:34.862Z,12.19
2018-10-17T19:17:03.503Z,12.06
2018-10-17T19:19:32.088Z,11.94
2018-10-17T19:22:00.943Z,11.87
2018-10-17T19:24:29.667Z,11.81
2018-10-17T19:26:58.627Z,11.79
2018-10-17T19:29:27.386Z,11.78
2018-10-17T19:31:56.005Z,11.75
2018-10-17T19:34:24.775Z,11.65
2018-10-17T19:36:53.548Z,11.58
2018-10-17T19:39:22.740Z,11.54
2018-10-17T19:41:51.652Z,11.49
2018-10-17T19:44:20.231Z,11.56
2018-10-17T19:46:48.742Z,11.59
2018-10-17T19:49:17.378Z,11.61
2018-10-17T19:51:45.932Z,11.61
2018-10-17T19:54:15.857Z,11.57
2018-10-17T19:56:44.490Z,11.49
2018-10-17T19:59:14.137Z,11.50
2018-10-17T20:01:42.757Z,11.40
2018-10-17T20:04:11.388Z,11.37
2018-10-17T20:06:40.247Z,11.37
2018-10-17T20:09:10.333Z,11.41
2018-10-17T20:11:39.097Z,11.33
2018-10-17T20:14:09.459Z,11.27
2018-10-17T20:16:37.970Z,11.23
2018-10-17T20:19:06.729Z,11.23
2018-10-17T20:21:35.402Z,11.19
2018-10-17T20:24:04.747Z,11.12
2018-10-17T20:26:33.605Z,11.02
2018-10-17T20:29:02.078Z,10.98
2018-10-17T20:31:30.896Z,10.99
2018-10-17T20:34:00.258Z,10.91
2018-10-17T20:36:28.873Z,10.75
2018-10-17T20:38:57.567Z,10.68
2018-10-17T20:41:26.798Z,10.59
2018-10-17T20:43:55.595Z,10.63
2018-10-17T20:46:24.423Z,10.61
2018-10-17T20:48:53.318Z,10.57
2018-10-17T20:51:22.122Z,10.52
2018-10-17T20:53:50.739Z,10.53
2018-10-17T20:56:19.735Z,10.40
2018-10-17T20:58:48.447Z,10.35
2018-10-17T21:01:17.009Z,10.35
2018-10-17T21:03:46.654Z,10.41
2018-10-17T21:06:15.270Z,10.39
2018-10-17T21:08:46.285Z,10.32
2018-10-17T21:11:14.942Z,10.23
2018-10-17T21:13:44.517Z,10.13
2018-10-17T21:16:13.432Z,10.10
2018-10-17T21:18:42.040Z,10.05
2018-10-17T21:21:10.581Z,10.05
2018-10-17T21:23:39.199Z,10.07
2018-10-17T21:26:07.937Z,10.13
2018-10-17T21:28:36.555Z,10.16
2018-10-17T21:31:05.692Z,10.15
2018-10-17T21:33:34.291Z,10.18
2018-10-17T21:36:02.847Z,10.20
2018-10-17T21:38:31.383Z,10.23
2018-10-17T21:40:59.919Z,10.22
2018-10-17T21:43:28.615Z,10.19
2018-10-17T21:45:57.415Z,10.09
2018-10-17T21:48:25.977Z,10.07
2018-10-17T21:50:54.747Z,10.04
2018-10-17T21:53:23.447Z,10.06
2018-10-17T21:55:52.258Z,10.09
2018-10-17T21:58:20.881Z,10.11
2018-10-17T22:00:49.497Z,10.10
2018-10-17T22:03:18.378Z,10.02
2018-10-17T22:05:46.952Z,9.96
2018-10-17T22:08:15.533Z,9.82
2018-10-17T22:10:44.118Z,9.61
2018-10-17T22:13:12.769Z,9.50
2018-10-17T22:15:41.997Z,9.49
2018-10-17T22:18:10.768Z,9.46
2018-10-17T22:20:39.429Z,9.48
2018-10-17T22:23:08.310Z,9.56
2018-10-17T22:25:36.830Z,9.59
2018-10-17T22:28:05.664Z,9.54
2018-10-17T22:30:34.467Z,9.58
2018-10-17T22:33:03.005Z,9.58
2018-10-17T22:35:31.914Z,9.56
2018-10-17T22:38:00.675Z,9.60
2018-10-17T22:40:29.365Z,9.56
2018-10-17T22:42:58.026Z,9.50
2018-10-17T22:45:26.765Z,9.52
2018-10-17T22:47:56.490Z,9.53
2018-10-17T22:50:25.022Z,9.58
2018-10-17T22:52:54.177Z,9.61
2018-10-17T22:55:23.604Z,9.67
2018-10-17T22:57:52.105Z,9.67
2018-10-17T23:00:20.651Z,9.64
2018-10-17T23:02:49.337Z,9.58
2018-10-17T23:05:18.815Z,9.55
2018-10-17T23:07:47.393Z,9.48
2018-10-17T23:10:16.066Z,9.36
2018-10-17T23:12:46.877Z,9.23
2018-10-17T23:15:16.296Z,9.21
2018-10-17T23:17:45.105Z,9.25
2018-10-17T23:20:13.822Z,9.38
2018-10-17T23:22:42.593Z,9.47
2018-10-17T23:25:11.973Z,9.47
2018-10-17T23:27:41.213Z,9.55
2018-10-17T23:30:10.458Z,9.49
2018-10-17T23:32:39.687Z,9.30
2018-10-17T23:35:08.689Z,9.24
2018-10-17T23:37:43.876Z,9.20
2018-10-17T23:40:12.685Z,9.15
2018-10-17T23:42:41.419Z,9.11
2018-10-17T23:45:11.074Z,9.08
2018-10-17T23:47:40.215Z,9.09
2018-10-17T23:50:09.023Z,9.06
2018-10-17T23:52:37.732Z,8.97
2018-10-17T23:55:06.956Z,8.78
2018-10-17T23:57:35.647Z,8.74
